Time;durP1;ratioP1;P1;durP2;ratioP2;P2;SDS_P1;SDS_P2;PMS_P1;PMS_P2;Temp;Humidity;BMP_temperature;BMP_pressure;BME280_temperature;BME280_humidity;BME280_pressure;Samples;Min_cycle;Max_cycle;Signal;HPM_P1;HPM_P2
2023/05/01 00:01:24;;;;;;;11.13;6.40;;;;;;;;;;5028417;28;20949;-41
2023/05/01 00:03:50;;;;;;;11.37;6.60;;;;;;;;;;5014833;28;20946;-42
2023/05/01 00:06:16;;;;;;;11.77;6.73;;;;;;;;;;5013362;28;20414;-42
2023/05/01 00:08:42;;;;;;;12.40;7.47;;;;;;;;;;5014354;28;20454;-42
2023/05/01 00:11:11;;;;;;;8.63;6.33;;;;;;;;;;5014590;28;20462;-42
2023/05/01 00:13:37;;;;;;;8.20;5.93;;;;;;;;;;5013569;28;20474;-41
2023/05/01 00:16:13;;;;;;;7.60;5.87;;;;;;;;;;5014503;28;20767;-41
2023/05/01 00:18:39;;;;;;;9.20;5.83;;;;;;;;;;5013875;28;20529;-42
2023/05/01 00:21:05;;;;;;;8.07;5.90;;;;;;;;;;5014526;28;20403;-42
2023/05/01 00:23:31;;;;;;;8.00;6.27;;;;;;;;;;5014329;28;20418;-41
2023/05/01 00:25:57;;;;;;;12.80;6.47;;;;;;;;;;5014374;28;20430;-41
2023/05/01 00:28:23;;;;;;;7.50;5.67;;;;;;;;;;5013985;28;20449;-42
2023/05/01 00:30:49;;;;;;;7.50;5.63;;;;;;;;;;5014271;28;20446;-42
2023/05/01 00:33:15;;;;;;;7.53;5.70;;;;;;;;;;5012722;28;20994;-46
2023/05/01 00:35:44;;;;;;;6.43;5.67;;;;;;;;;;5014009;28;20404;-42
2023/05/01 00:38:10;;;;;;;8.90;7.50;;;;;;;;;;5013722;28;20976;-42
2023/05/01 00:40:45;;;;;;;9.90;4.83;;;;;;;;;;5014135;28;20431;-41
2023/05/01 00:43:12;;;;;;;12.20;6.13;;;;;;;;;;5014114;28;20407;-41
2023/05/01 00:45:38;;;;;;;8.97;6.37;;;;;;;;;;5012110;28;20439;-43
2023/05/01 00:48:05;;;;;;;11.80;6.80;;;;;;;;;;5013582;28;20433;-42
2023/05/01 00:50:31;;;;;;;9.13;5.80;;;;;;;;;;5013789;28;20961;-41
2023/05/01 00:52:57;;;;;;;9.83;5.97;;;;;;;;;;5013915;28;20402;-42
2023/05/01 00:55:23;;;;;;;9.43;6.37;;;;;;;;;;5013971;28;20408;-42
2023/05/01 00:57:49;;;;;;;10.33;6.37;;;;;;;;;;5013549;28;20489;-42
2023/05/01 01:00:16;;;;;;;11.97;6.10;;;;;;;;;;5013448;28;20409;-41
2023/05/01 01:02:42;;;;;;;8.80;5.93;;;;;;;;;;5011113;28;20441;-42
2023/05/01 01:05:08;;;;;;;11.50;7.07;;;;;;;;;;5012672;28;20414;-41
2023/05/01 01:07:49;;;;;;;8.40;6.37;;;;;;;;;;5013512;28;20781;-42
2023/05/01 01:10:26;;;;;;;11.37;6.17;;;;;;;;;;5013208;28;20496;-41
2023/05/01 01:13:09;;;;;;;7.00;5.20;;;;;;;;;;5013425;28;20405;-44
2023/05/01 01:15:42;;;;;;;9.47;6.07;;;;;;;;;;5010894;28;20423;-41
2023/05/01 01:18:11;;;;;;;10.40;6.67;;;;;;;;;;5008007;28;20446;-44
2023/05/01 01:20:43;;;;;;;7.67;5.73;;;;;;;;;;5017826;28;20480;-41
2023/05/01 01:23:12;;;;;;;11.17;6.37;;;;;;;;;;5019434;28;20412;-43
2023/05/01 01:25:41;;;;;;;9.03;6.13;;;;;;;;;;5019882;28;20427;-41
2023/05/01 01:28:10;;;;;;;8.10;5.87;;;;;;;;;;5013113;28;20979;-41
2023/05/01 01:31:03;;;;;;;8.67;5.43;;;;;;;;;;5020312;28;20987;-41
2023/05/01 01:33:47;;;;;;;7.40;6.60;;;;;;;;;;5000246;28;20514;-41
2023/05/01 01:36:36;;;;;;;11.53;6.20;;;;;;;;;;5005467;28;20937;-41
2023/05/01 01:39:12;;;;;;;9.07;6.30;;;;;;;;;;5017745;28;20432;-42
2023/05/01 01:41:38;;;;;;;8.00;5.63;;;;;;;;;;5023767;28;20419;-41
2023/05/01 01:44:08;;;;;;;10.20;6.97;;;;;;;;;;5007773;28;20420;-42
2023/05/01 01:46:36;;;;;;;9.10;5.90;;;;;;;;;;5013702;28;20989;-44
2023/05/01 01:49:06;;;;;;;10.30;6.80;;;;;;;;;;5018380;28;20920;-41
2023/05/01 01:51:32;;;;;;;9.80;6.40;;;;;;;;;;5016484;28;20805;-44
2023/05/01 01:53:58;;;;;;;18.93;7.00;;;;;;;;;;5022516;28;20406;-41
2023/05/01 01:56:26;;;;;;;9.33;7.53;;;;;;;;;;5020713;28;20410;-41
2023/05/01 01:58:53;;;;;;;7.23;6.07;;;;;;;;;;5019905;28;20429;-41
2023/05/01 02:01:19;;;;;;;6.53;5.20;;;;;;;;;;5014384;28;20815;-41
2023/05/01 02:03:46;;;;;;;11.77;7.47;;;;;;;;;;5007273;28;20497;-41
2023/05/01 02:06:14;;;;;;;8.70;6.07;;;;;;;;;;5023085;28;20832;-41
2023/05/01 02:08:40;;;;;;;8.40;6.53;;;;;;;;;;5018326;28;20527;-41
2023/05/01 02:11:07;;;;;;;11.17;7.50;;;;;;;;;;5022938;28;20468;-42
2023/05/01 02:13:35;;;;;;;11.97;6.90;;;;;;;;;;5016317;28;20413;-42
2023/05/01 02:16:02;;;;;;;8.53;6.80;;;;;;;;;;5016906;28;20411;-41
2023/05/01 02:18:29;;;;;;;9.63;6.27;;;;;;;;;;5011737;28;20564;-44
2023/05/01 02:20:56;;;;;;;8.23;6.43;;;;;;;;;;5020551;28;20429;-42
2023/05/01 02:23:24;;;;;;;10.57;6.67;;;;;;;;;;5023673;28;20461;-41
2023/05/01 02:25:51;;;;;;;10.00;5.93;;;;;;;;;;5015226;28;20424;-41
2023/05/01 02:28:21;;;;;;;9.97;7.77;;;;;;;;;;5020151;28;20527;-42
2023/05/01 02:30:47;;;;;;;7.60;6.37;;;;;;;;;;5031286;28;20447;-41
2023/05/01 02:33:13;;;;;;;11.10;5.90;;;;;;;;;;5032261;28;20408;-41
2023/05/01 02:35:43;;;;;;;8.40;6.17;;;;;;;;;;5031902;28;20893;-41
2023/05/01 02:38:11;;;;;;;15.97;6.77;;;;;;;;;;5031421;28;20515;-41
2023/05/01 02:40:38;;;;;;;8.37;6.20;;;;;;;;;;5031853;28;20781;-41
2023/05/01 02:43:06;;;;;;;9.77;6.30;;;;;;;;;;5031852;28;20401;-41
2023/05/01 02:45:35;;;;;;;8.47;5.83;;;;;;;;;;5031813;28;20495;-41
2023/05/01 02:48:01;;;;;;;9.33;6.30;;;;;;;;;;5031507;28;20400;-49
2023/05/01 02:50:28;;;;;;;9.73;5.97;;;;;;;;;;5031700;28;20478;-41
2023/05/01 02:52:54;;;;;;;9.10;6.40;;;;;;;;;;5031706;28;20404;-41
2023/05/01 02:55:20;;;;;;;9.53;5.80;;;;;;;;;;5009785;28;20450;-41
2023/05/01 02:57:46;;;;;;;8.57;5.90;;;;;;;;;;5011757;28;20491;-42
2023/05/01 03:00:12;;;;;;;16.80;6.90;;;;;;;;;;5011778;28;20400;-42
2023/05/01 03:02:41;;;;;;;9.23;6.33;;;;;;;;;;5011855;28;20878;-41
2023/05/01 03:05:08;;;;;;;7.37;5.87;;;;;;;;;;5011820;28;20406;-42
2023/05/01 03:07:34;;;;;;;17.03;8.10;;;;;;;;;;5011800;28;20480;-41
2023/05/01 03:10:04;;;;;;;7.37;6.03;;;;;;;;;;5011529;28;20425;-41
2023/05/01 03:12:30;;;;;;;7.53;5.80;;;;;;;;;;5011813;28;20399;-41
2023/05/01 03:14:56;;;;;;;9.87;6.17;;;;;;;;;;5011914;28;20480;-41
2023/05/01 03:17:22;;;;;;;10.57;6.33;;;;;;;;;;5011566;28;20404;-41
2023/05/01 03:19:48;;;;;;;9.70;6.07;;;;;;;;;;5009532;28;20508;-41
2023/05/01 03:22:14;;;;;;;9.43;6.40;;;;;;;;;;5010948;28;20430;-41
2023/05/01 03:24:40;;;;;;;11.20;6.77;;;;;;;;;;5011653;28;20829;-41
2023/05/01 03:27:06;;;;;;;9.27;6.43;;;;;;;;;;5011625;28;20890;-42
2023/05/01 03:29:33;;;;;;;8.17;6.70;;;;;;;;;;5011503;28;20435;-42
2023/05/01 03:31:59;;;;;;;7.67;5.93;;;;;;;;;;5011597;28;20540;-41
2023/05/01 03:34:26;;;;;;;7.57;5.73;;;;;;;;;;5011575;28;20411;-41
2023/05/01 03:36:53;;;;;;;8.47;5.93;;;;;;;;;;5011752;28;20799;-41
2023/05/01 03:39:19;;;;;;;7.47;5.67;;;;;;;;;;5012219;28;20424;-42
2023/05/01 03:41:45;;;;;;;11.57;6.50;;;;;;;;;;5015172;28;20410;-43
2023/05/01 03:44:11;;;;;;;8.33;5.77;;;;;;;;;;5015191;28;20450;-43
2023/05/01 03:46:37;;;;;;;9.63;7.17;;;;;;;;;;5012465;28;20524;-44
2023/05/01 03:49:04;;;;;;;9.57;6.40;;;;;;;;;;5014815;28;20759;-42
2023/05/01 03:51:30;;;;;;;10.13;6.27;;;;;;;;;;5014929;28;20461;-42
2023/05/01 03:53:57;;;;;;;10.73;5.90;;;;;;;;;;5014978;28;20408;-42
2023/05/01 03:56:24;;;;;;;10.00;6.93;;;;;;;;;;5014988;28;20407;-41
2023/05/01 03:58:50;;;;;;;7.03;5.97;;;;;;;;;;5014415;28;20429;-42
2023/05/01 04:01:16;;;;;;;10.20;5.83;;;;;;;;;;5014791;28;20456;-42
2023/05/01 04:03:42;;;;;;;11.83;6.40;;;;;;;;;;5014731;28;20416;-42
2023/05/01 04:06:08;;;;;;;9.13;6.33;;;;;;;;;;5014795;28;20405;-42
2023/05/01 04:08:34;;;;;;;10.97;7.00;;;;;;;;;;5014345;28;20453;-44
2023/05/01 04:11:00;;;;;;;7.63;5.87;;;;;;;;;;5013813;28;20465;-44
2023/05/01 04:13:26;;;;;;;13.40;6.27;;;;;;;;;;5015513;28;20810;-45
2023/05/01 04:15:54;;;;;;;9.10;5.70;;;;;;;;;;5014739;28;20413;-44
2023/05/01 04:18:20;;;;;;;11.40;7.00;;;;;;;;;;5015043;28;20504;-44
2023/05/01 04:20:47;;;;;;;9.03;6.50;;;;;;;;;;5029642;28;20445;-45
2023/05/01 04:23:13;;;;;;;7.57;6.80;;;;;;;;;;5021732;28;20435;-44
2023/05/01 04:25:39;;;;;;;8.57;6.80;;;;;;;;;;5016968;28;20416;-44
2023/05/01 04:28:05;;;;;;;8.40;6.27;;;;;;;;;;5021756;28;20430;-44
2023/05/01 04:30:31;;;;;;;10.50;6.70;;;;;;;;;;5018029;28;20623;-44
2023/05/01 04:32:57;;;;;;;12.60;7.30;;;;;;;;;;5014605;28;20922;-45
2023/05/01 04:35:25;;;;;;;8.67;5.47;;;;;;;;;;5020991;28;20491;-44
2023/05/01 04:37:51;;;;;;;11.27;6.50;;;;;;;;;;5023785;28;20931;-43
2023/05/01 04:40:18;;;;;;;9.93;5.90;;;;;;;;;;5018234;28;20495;-43
2023/05/01 04:42:45;;;;;;;10.57;6.47;;;;;;;;;;5013243;28;20509;-43
2023/05/01 04:45:11;;;;;;;11.60;6.10;;;;;;;;;;5016989;28;20434;-45
2023/05/01 04:47:37;;;;;;;6.50;5.63;;;;;;;;;;5017586;28;20897;-44
2023/05/01 04:50:03;;;;;;;10.13;6.77;;;;;;;;;;5025173;28;20472;-44
2023/05/01 04:52:29;;;;;;;13.43;6.67;;;;;;;;;;5020440;28;20506;-44
2023/05/01 04:54:56;;;;;;;9.77;6.70;;;;;;;;;;5021149;28;20858;-44
2023/05/01 04:57:22;;;;;;;9.63;6.57;;;;;;;;;;5012284;28;20440;-44
2023/05/01 04:59:48;;;;;;;9.47;6.87;;;;;;;;;;5017572;28;20443;-44
2023/05/01 05:02:14;;;;;;;11.27;6.10;;;;;;;;;;5024201;28;20472;-43
2023/05/01 05:04:40;;;;;;;10.97;5.97;;;;;;;;;;5019919;28;20425;-45
2023/05/01 05:07:08;;;;;;;7.50;6.10;;;;;;;;;;5025214;28;20441;-44
2023/05/01 05:09:35;;;;;;;11.83;5.90;;;;;;;;;;5017442;28;20800;-44
2023/05/01 05:12:03;;;;;;;12.20;6.30;;;;;;;;;;5017422;28;20837;-43
2023/05/01 05:14:29;;;;;;;8.20;6.20;;;;;;;;;;5012921;28;20509;-44
2023/05/01 05:16:56;;;;;;;7.93;5.50;;;;;;;;;;5019851;28;20908;-45
2023/05/01 05:19:22;;;;;;;7.97;6.00;;;;;;;;;;5021442;28;20454;-46
2023/05/01 05:21:48;;;;;;;8.77;6.80;;;;;;;;;;5015995;28;20557;-43
2023/05/01 05:24:14;;;;;;;7.10;5.80;;;;;;;;;;5019618;28;20431;-44
2023/05/01 05:26:40;;;;;;;8.27;5.90;;;;;;;;;;5018301;28;20445;-43
2023/05/01 05:29:06;;;;;;;9.90;6.33;;;;;;;;;;5013519;28;20812;-43
2023/05/01 05:31:32;;;;;;;7.23;5.63;;;;;;;;;;5020124;28;20466;-45
2023/05/01 05:33:58;;;;;;;7.70;6.00;;;;;;;;;;5023863;28;20416;-44
2023/05/01 05:36:26;;;;;;;7.93;5.33;;;;;;;;;;5018919;28;20449;-45
2023/05/01 05:38:52;;;;;;;8.23;5.97;;;;;;;;;;5011465;28;20456;-45
2023/05/01 05:41:18;;;;;;;9.20;6.00;;;;;;;;;;5014272;28;20494;-45
2023/05/01 05:43:44;;;;;;;6.77;5.63;;;;;;;;;;5018038;28;20989;-45
2023/05/01 05:46:10;;;;;;;6.63;5.07;;;;;;;;;;5024843;28;20406;-44
2023/05/01 05:48:36;;;;;;;7.63;5.17;;;;;;;;;;5019539;28;20470;-44
2023/05/01 05:51:02;;;;;;;8.77;5.57;;;;;;;;;;5032158;28;20461;-43
2023/05/01 05:53:28;;;;;;;7.07;5.00;;;;;;;;;;5033154;28;20509;-44
2023/05/01 05:55:54;;;;;;;10.47;4.70;;;;;;;;;;5033190;28;20818;-45
2023/05/01 05:58:21;;;;;;;10.77;6.30;;;;;;;;;;5032759;28;20429;-45
2023/05/01 06:00:47;;;;;;;7.80;4.80;;;;;;;;;;5033569;28;20411;-45
2023/05/01 06:03:14;;;;;;;8.43;4.37;;;;;;;;;;5032854;28;20414;-46
2023/05/01 06:05:41;;;;;;;6.17;4.53;;;;;;;;;;5027604;28;20601;-47
2023/05/01 06:08:09;;;;;;;6.23;4.50;;;;;;;;;;5009549;28;20851;-46
2023/05/01 06:10:36;;;;;;;12.90;6.60;;;;;;;;;;5012639;28;20456;-45
2023/05/01 06:13:02;;;;;;;6.83;4.77;;;;;;;;;;5022303;28;20419;-44
2023/05/01 06:15:28;;;;;;;4.87;4.47;;;;;;;;;;5021432;28;20409;-43
2023/05/01 06:17:54;;;;;;;9.03;5.30;;;;;;;;;;5021999;28;20886;-45
2023/05/01 06:20:20;;;;;;;5.33;4.07;;;;;;;;;;5020967;28;20415;-44
2023/05/01 06:22:46;;;;;;;5.10;4.37;;;;;;;;;;5020349;28;20414;-44
2023/05/01 06:25:12;;;;;;;4.90;4.30;;;;;;;;;;5011669;28;20479;-44
2023/05/01 06:27:38;;;;;;;4.37;3.97;;;;;;;;;;5030053;28;20419;-43
2023/05/01 06:30:05;;;;;;;4.50;3.77;;;;;;;;;;5014678;28;20441;-45
2023/05/01 06:32:31;;;;;;;6.60;4.17;;;;;;;;;;5021161;28;20811;-43
2023/05/01 06:34:57;;;;;;;5.60;3.60;;;;;;;;;;5023481;28;20414;-46
2023/05/01 06:37:23;;;;;;;5.57;3.83;;;;;;;;;;5015410;28;20464;-44
2023/05/01 06:39:49;;;;;;;6.33;4.37;;;;;;;;;;5017124;28;20472;-46
2023/05/01 06:42:15;;;;;;;6.60;4.00;;;;;;;;;;5021928;28;20470;-45
2023/05/01 06:44:42;;;;;;;6.47;3.90;;;;;;;;;;5026382;28;21168;-45
2023/05/01 06:47:08;;;;;;;4.40;4.00;;;;;;;;;;5018623;28;20486;-45
2023/05/01 06:49:34;;;;;;;7.13;5.27;;;;;;;;;;5016147;28;21014;-45
2023/05/01 06:52:00;;;;;;;5.40;4.40;;;;;;;;;;5020910;28;20973;-44
2023/05/01 06:54:26;;;;;;;6.40;4.37;;;;;;;;;;5016810;28;20377;-45
2023/05/01 06:56:53;;;;;;;5.60;4.60;;;;;;;;;;5023420;28;20426;-46
2023/05/01 06:59:19;;;;;;;5.40;4.60;;;;;;;;;;5024535;28;20459;-44
2023/05/01 07:01:45;;;;;;;4.27;3.80;;;;;;;;;;5022886;28;20791;-45
2023/05/01 07:04:12;;;;;;;5.50;4.07;;;;;;;;;;5020387;28;20521;-44
2023/05/01 07:06:38;;;;;;;6.00;4.53;;;;;;;;;;5010297;28;20432;-45
2023/05/01 07:09:05;;;;;;;6.13;4.73;;;;;;;;;;5023525;28;20953;-45
2023/05/01 07:11:32;;;;;;;5.30;4.10;;;;;;;;;;5023402;28;21033;-46
2023/05/01 07:13:58;;;;;;;4.47;3.93;;;;;;;;;;5022725;28;20896;-46
2023/05/01 07:16:24;;;;;;;4.23;3.83;;;;;;;;;;5027691;28;20436;-45
2023/05/01 07:18:50;;;;;;;6.40;4.50;;;;;;;;;;5023196;28;20463;-44
2023/05/01 07:21:16;;;;;;;5.83;4.43;;;;;;;;;;5017414;28;20428;-46
2023/05/01 07:23:42;;;;;;;5.70;4.30;;;;;;;;;;5027843;28;20395;-44
2023/05/01 07:26:08;;;;;;;7.30;4.43;;;;;;;;;;5025580;28;20447;-45
2023/05/01 07:28:34;;;;;;;4.37;3.97;;;;;;;;;;5022593;28;20831;-46
2023/05/01 07:31:00;;;;;;;6.30;4.13;;;;;;;;;;5027782;28;20453;-46
2023/05/01 07:33:27;;;;;;;7.83;4.00;;;;;;;;;;5020120;28;20395;-45
2023/05/01 07:35:53;;;;;;;7.77;4.10;;;;;;;;;;5016630;28;20471;-45
2023/05/01 07:38:19;;;;;;;7.60;5.50;;;;;;;;;;5030277;28;20494;-45
2023/05/01 07:40:45;;;;;;;6.10;4.97;;;;;;;;;;5029540;28;20446;-47
2023/05/01 07:43:11;;;;;;;3.87;3.53;;;;;;;;;;5021914;28;20509;-46
2023/05/01 07:45:37;;;;;;;4.43;4.03;;;;;;;;;;5018009;28;20794;-45
2023/05/01 07:48:04;;;;;;;4.93;3.97;;;;;;;;;;5020609;28;20749;-45
2023/05/01 07:50:30;;;;;;;5.97;3.60;;;;;;;;;;5022376;28;20465;-44
2023/05/01 07:52:57;;;;;;;3.83;3.43;;;;;;;;;;5017844;28;20430;-42
2023/05/01 07:55:23;;;;;;;3.30;3.10;;;;;;;;;;5020690;28;20422;-46
2023/05/01 07:57:49;;;;;;;3.80;3.00;;;;;;;;;;5025567;28;20484;-43
2023/05/01 08:00:15;;;;;;;9.23;3.10;;;;;;;;;;5004834;28;20430;-44
2023/05/01 08:02:41;;;;;;;5.63;4.77;;;;;;;;;;5015704;28;20765;-43
2023/05/01 08:05:07;;;;;;;6.20;3.30;;;;;;;;;;5026838;28;20413;-44
2023/05/01 08:07:33;;;;;;;4.00;3.40;;;;;;;;;;5017676;28;20921;-45
2023/05/01 08:09:59;;;;;;;4.10;3.10;;;;;;;;;;5024610;28;20441;-42
2023/05/01 08:12:26;;;;;;;3.20;2.93;;;;;;;;;;5022219;28;20462;-41
2023/05/01 08:14:52;;;;;;;3.73;3.10;;;;;;;;;;5020649;28;20502;-42
2023/05/01 08:17:19;;;;;;;3.73;3.30;;;;;;;;;;5020406;28;20733;-42
2023/05/01 08:19:45;;;;;;;10.60;3.20;;;;;;;;;;5014493;28;20450;-43
2023/05/01 08:22:11;;;;;;;4.20;3.27;;;;;;;;;;5014612;28;20899;-44
2023/05/01 08:24:41;;;;;;;3.60;2.77;;;;;;;;;;5010730;28;20438;-43
2023/05/01 08:27:08;;;;;;;3.50;3.17;;;;;;;;;;5013587;28;20417;-43
2023/05/01 08:29:34;;;;;;;3.03;2.83;;;;;;;;;;5009924;28;20794;-42
2023/05/01 08:32:00;;;;;;;3.73;3.33;;;;;;;;;;5015931;28;20501;-42
2023/05/01 08:34:26;;;;;;;6.30;3.23;;;;;;;;;;5016535;28;20955;-42
2023/05/01 08:36:52;;;;;;;6.33;3.47;;;;;;;;;;5019544;28;20407;-43
2023/05/01 08:39:18;;;;;;;3.27;2.97;;;;;;;;;;5015926;28;20431;-43
2023/05/01 08:41:47;;;;;;;3.37;3.03;;;;;;;;;;5020929;28;20506;-42
2023/05/01 08:44:15;;;;;;;4.87;3.80;;;;;;;;;;5023432;28;20423;-42
2023/05/01 08:46:58;;;;;;;5.23;3.97;;;;;;;;;;5021513;28;20422;-42
2023/05/01 08:49:25;;;;;;;10.10;4.63;;;;;;;;;;5013725;28;20455;-42
2023/05/01 08:51:55;;;;;;;3.77;2.90;;;;;;;;;;5013607;28;20462;-45
2023/05/01 08:54:21;;;;;;;5.20;3.37;;;;;;;;;;5013277;28;20972;-44
2023/05/01 08:56:47;;;;;;;4.13;3.30;;;;;;;;;;5013730;28;20515;-42
2023/05/01 08:59:14;;;;;;;5.70;3.10;;;;;;;;;;5011856;28;20514;-42
2023/05/01 09:01:40;;;;;;;3.47;3.17;;;;;;;;;;5013772;28;20915;-44
2023/05/01 09:04:08;;;;;;;4.97;3.20;;;;;;;;;;5013947;28;20410;-42
2023/05/01 09:06:35;;;;;;;3.53;3.23;;;;;;;;;;5013746;28;20826;-43
2023/05/01 09:09:01;;;;;;;5.70;3.37;;;;;;;;;;5013589;28;20451;-43
2023/05/01 09:11:27;;;;;;;7.77;4.73;;;;;;;;;;5011164;28;20490;-42
2023/05/01 09:13:53;;;;;;;2.83;2.60;;;;;;;;;;5013672;28;20414;-43
2023/05/01 09:16:20;;;;;;;4.10;3.23;;;;;;;;;;5013430;28;20470;-42
2023/05/01 09:18:46;;;;;;;4.47;3.70;;;;;;;;;;5013057;28;20497;-43
2023/05/01 09:21:12;;;;;;;7.47;3.03;;;;;;;;;;5013466;28;20950;-42
2023/05/01 09:23:39;;;;;;;9.73;3.13;;;;;;;;;;5013463;28;20410;-42
2023/05/01 09:26:05;;;;;;;3.60;2.70;;;;;;;;;;5013372;28;20507;-45
2023/05/01 09:28:41;;;;;;;6.70;2.87;;;;;;;;;;5013082;28;20426;-45
2023/05/01 09:31:28;;;;;;;2.87;2.30;;;;;;;;;;5013209;28;20450;-42
2023/05/01 09:34:02;;;;;;;4.00;2.70;;;;;;;;;;5013091;28;20411;-42
2023/05/01 09:36:29;;;;;;;4.00;3.53;;;;;;;;;;5010095;28;20506;-45
2023/05/01 09:38:56;;;;;;;5.33;2.97;;;;;;;;;;5012572;28;20430;-42
2023/05/01 09:41:22;;;;;;;2.43;2.20;;;;;;;;;;5013072;28;20510;-42
2023/05/01 09:43:52;;;;;;;3.50;2.93;;;;;;;;;;5013048;28;20411;-42
2023/05/01 09:46:18;;;;;;;3.40;2.60;;;;;;;;;;5012864;28;20911;-43
2023/05/01 09:48:57;;;;;;;2.20;2.00;;;;;;;;;;5012754;28;20484;-43
2023/05/01 09:51:27;;;;;;;2.33;2.10;;;;;;;;;;5012848;28;20509;-46
2023/05/01 09:53:55;;;;;;;3.13;2.50;;;;;;;;;;5012913;28;20403;-44
2023/05/01 09:56:21;;;;;;;3.13;2.70;;;;;;;;;;5012806;28;20396;-43
2023/05/01 09:58:48;;;;;;;7.87;3.10;;;;;;;;;;5012452;28;20421;-42
2023/05/01 10:01:14;;;;;;;3.03;2.70;;;;;;;;;;5012713;28;20490;-44
2023/05/01 10:03:42;;;;;;;2.97;2.50;;;;;;;;;;5012723;28;20407;-43
2023/05/01 10:06:09;;;;;;;4.00;2.03;;;;;;;;;;5012432;28;20495;-43
2023/05/01 10:08:45;;;;;;;3.20;2.20;;;;;;;;;;5009721;28;20450;-43
2023/05/01 10:11:11;;;;;;;2.30;2.10;;;;;;;;;;5012423;28;20984;-43
2023/05/01 10:13:37;;;;;;;2.67;2.47;;;;;;;;;;5013900;28;20433;-46
2023/05/01 10:16:06;;;;;;;2.77;2.30;;;;;;;;;;5014438;28;20448;-45
2023/05/01 10:18:33;;;;;;;3.00;2.27;;;;;;;;;;5013598;28;20518;-48
2023/05/01 10:20:59;;;;;;;2.60;2.40;;;;;;;;;;5012764;28;20407;-46
2023/05/01 10:23:25;;;;;;;2.40;2.20;;;;;;;;;;5014654;28;20407;-47
2023/05/01 10:25:52;;;;;;;5.53;2.40;;;;;;;;;;5014455;28;20305;-47
2023/05/01 10:28:19;;;;;;;3.50;2.43;;;;;;;;;;5013870;28;20423;-46
2023/05/01 10:30:46;;;;;;;2.67;2.20;;;;;;;;;;5013753;28;20451;-48
2023/05/01 10:33:15;;;;;;;3.40;3.13;;;;;;;;;;5013959;28;20471;-46
2023/05/01 10:35:43;;;;;;;4.40;2.30;;;;;;;;;;5014428;28;20415;-46
2023/05/01 10:38:11;;;;;;;2.67;2.47;;;;;;;;;;5012156;28;20459;-46
2023/05/01 10:40:40;;;;;;;2.57;2.37;;;;;;;;;;5013339;28;20465;-45
2023/05/01 10:43:15;;;;;;;4.30;2.40;;;;;;;;;;5028350;28;20456;-45
2023/05/01 10:45:42;;;;;;;2.27;1.90;;;;;;;;;;5028076;28;20853;-46
2023/05/01 10:48:08;;;;;;;5.77;3.47;;;;;;;;;;5011837;28;20467;-45
2023/05/01 10:50:34;;;;;;;2.40;2.20;;;;;;;;;;5018335;28;20498;-46
2023/05/01 10:53:13;;;;;;;3.50;2.50;;;;;;;;;;5018973;28;20414;-45
2023/05/01 10:55:42;;;;;;;2.00;1.90;;;;;;;;;;5018802;28;20486;-46
2023/05/01 10:58:08;;;;;;;2.63;2.13;;;;;;;;;;5018393;28;20477;-46
2023/05/01 11:00:34;;;;;;;3.30;2.83;;;;;;;;;;5018622;28;20410;-46
2023/05/01 11:03:18;;;;;;;2.60;2.40;;;;;;;;;;5018694;28;20417;-44
2023/05/01 11:06:03;;;;;;;2.93;2.20;;;;;;;;;;5018698;28;20405;-47
2023/05/01 11:08:32;;;;;;;3.20;2.37;;;;;;;;;;5016504;28;20555;-46
2023/05/01 11:10:58;;;;;;;3.53;2.53;;;;;;;;;;5018670;28;20541;-45
2023/05/01 11:13:42;;;;;;;6.07;2.80;;;;;;;;;;5018807;28;20493;-46
2023/05/01 11:16:27;;;;;;;2.60;2.40;;;;;;;;;;5018532;28;20420;-45
2023/05/01 11:18:53;;;;;;;2.43;2.23;;;;;;;;;;5018215;28;20453;-45
2023/05/01 11:21:29;;;;;;;3.13;2.87;;;;;;;;;;5018516;28;20409;-47
2023/05/01 11:23:55;;;;;;;2.77;2.57;;;;;;;;;;5018750;28;20417;-47
2023/05/01 11:26:22;;;;;;;2.87;2.60;;;;;;;;;;5018831;28;20406;-44
2023/05/01 11:28:49;;;;;;;3.20;2.60;;;;;;;;;;5018716;28;20525;-44
2023/05/01 11:31:18;;;;;;;2.53;2.33;;;;;;;;;;5018927;28;20860;-45
2023/05/01 11:33:44;;;;;;;3.37;3.07;;;;;;;;;;5018299;28;20497;-46
2023/05/01 11:36:11;;;;;;;2.87;2.57;;;;;;;;;;5018267;28;20497;-45
2023/05/01 11:38:38;;;;;;;3.00;2.70;;;;;;;;;;5016214;28;20489;-47
2023/05/01 11:41:04;;;;;;;2.97;2.77;;;;;;;;;;5017908;28;20430;-45
2023/05/01 11:43:31;;;;;;;3.90;2.50;;;;;;;;;;5018465;28;20918;-46
2023/05/01 11:46:01;;;;;;;3.10;2.80;;;;;;;;;;5018770;28;20403;-46
2023/05/01 11:48:28;;;;;;;2.70;2.50;;;;;;;;;;5017867;28;20530;-45
2023/05/01 11:50:54;;;;;;;3.40;2.60;;;;;;;;;;5018176;28;20827;-46
2023/05/01 11:53:23;;;;;;;3.53;2.50;;;;;;;;;;5019087;28;20708;-46
2023/05/01 11:55:50;;;;;;;3.63;2.63;;;;;;;;;;5018186;28;20398;-45
2023/05/01 11:58:16;;;;;;;7.40;3.07;;;;;;;;;;5017900;28;20447;-45
2023/05/01 12:00:43;;;;;;;3.23;2.77;;;;;;;;;;5016575;28;20412;-46
2023/05/01 12:03:10;;;;;;;2.43;2.23;;;;;;;;;;5015092;28;20501;-46
2023/05/01 12:05:39;;;;;;;2.40;2.20;;;;;;;;;;5015292;28;20415;-47
2023/05/01 12:08:19;;;;;;;5.43;2.53;;;;;;;;;;5014754;28;20418;-46
2023/05/01 12:10:46;;;;;;;2.50;2.30;;;;;;;;;;5014136;28;20466;-46
2023/05/01 12:13:13;;;;;;;2.87;2.57;;;;;;;;;;5014718;28;20484;-46
2023/05/01 12:16:00;;;;;;;2.33;2.13;;;;;;;;;;5015912;28;20501;-46
2023/05/01 12:18:26;;;;;;;3.37;1.90;;;;;;;;;;5016590;28;20473;-46
2023/05/01 12:20:55;;;;;;;2.03;1.83;;;;;;;;;;5016969;28;20900;-46
2023/05/01 12:23:35;;;;;;;2.70;2.50;;;;;;;;;;5014594;28;20407;-45
2023/05/01 12:26:03;;;;;;;1.97;1.70;;;;;;;;;;5014777;28;20752;-46
2023/05/01 12:28:30;;;;;;;2.27;2.07;;;;;;;;;;5014723;28;20445;-45
2023/05/01 12:31:01;;;;;;;2.33;2.10;;;;;;;;;;5015187;28;20461;-45
2023/05/01 12:33:27;;;;;;;2.60;2.40;;;;;;;;;;5015159;28;20487;-46
2023/05/01 12:35:53;;;;;;;2.47;2.27;;;;;;;;;;5014887;28;20425;-45
2023/05/01 12:38:22;;;;;;;3.23;2.93;;;;;;;;;;5014627;28;20833;-47
2023/05/01 12:40:51;;;;;;;3.10;2.80;;;;;;;;;;5014009;28;20888;-43
2023/05/01 12:43:17;;;;;;;3.07;2.87;;;;;;;;;;4995876;28;20392;-45
2023/05/01 12:45:43;;;;;;;2.70;2.50;;;;;;;;;;4995900;28;20479;-45
2023/05/01 12:48:12;;;;;;;2.97;2.67;;;;;;;;;;4996035;28;20463;-45
2023/05/01 12:50:38;;;;;;;2.83;2.23;;;;;;;;;;4995919;28;20455;-45
2023/05/01 12:53:06;;;;;;;2.93;2.50;;;;;;;;;;4996331;28;20435;-47
2023/05/01 12:55:34;;;;;;;2.83;2.50;;;;;;;;;;4995810;28;20454;-45
2023/05/01 12:58:00;;;;;;;6.83;2.73;;;;;;;;;;4994861;28;20876;-45
2023/05/01 13:00:26;;;;;;;2.70;2.50;;;;;;;;;;4994837;28;20406;-46
2023/05/01 13:02:52;;;;;;;2.47;2.27;;;;;;;;;;4994633;28;20407;-45
2023/05/01 13:05:18;;;;;;;2.23;1.93;;;;;;;;;;4994337;28;20400;-45
2023/05/01 13:07:48;;;;;;;2.20;2.00;;;;;;;;;;4994750;28;20924;-46
2023/05/01 13:10:18;;;;;;;3.40;2.27;;;;;;;;;;5006767;28;20433;-44
2023/05/01 13:12:45;;;;;;;2.60;2.37;;;;;;;;;;5013975;28;20772;-47
2023/05/01 13:15:20;;;;;;;3.50;2.23;;;;;;;;;;5013867;28;20392;-45
2023/05/01 13:17:47;;;;;;;2.80;2.60;;;;;;;;;;5013192;28;20462;-46
2023/05/01 13:20:13;;;;;;;2.97;2.10;;;;;;;;;;5013526;28;20446;-46
2023/05/01 13:22:39;;;;;;;2.87;2.17;;;;;;;;;;5013443;28;20823;-45
2023/05/01 13:25:14;;;;;;;2.50;2.10;;;;;;;;;;5013467;28;20407;-45
2023/05/01 13:27:41;;;;;;;2.93;2.60;;;;;;;;;;5013248;28;20394;-44
2023/05/01 13:30:07;;;;;;;2.40;2.20;;;;;;;;;;5013095;28;20855;-46
2023/05/01 13:32:33;;;;;;;4.03;2.07;;;;;;;;;;5013061;28;20507;-46
2023/05/01 13:35:02;;;;;;;2.70;2.50;;;;;;;;;;5013211;28;20403;-46
2023/05/01 13:37:29;;;;;;;1.90;1.70;;;;;;;;;;5013427;28;20437;-45
2023/05/01 13:39:58;;;;;;;2.30;2.07;;;;;;;;;;5011384;28;20529;-46
2023/05/01 13:42:24;;;;;;;1.90;1.70;;;;;;;;;;5012520;28;20437;-46
2023/05/01 13:44:53;;;;;;;2.60;2.20;;;;;;;;;;5013157;28;20407;-45
2023/05/01 13:47:22;;;;;;;1.80;1.70;;;;;;;;;;5013379;28;20442;-46
2023/05/01 13:49:48;;;;;;;3.07;2.40;;;;;;;;;;5011696;28;20461;-47
2023/05/01 13:52:16;;;;;;;2.20;1.87;;;;;;;;;;5015156;28;20466;-46
2023/05/01 13:54:42;;;;;;;2.50;2.30;;;;;;;;;;5012445;28;20422;-46
2023/05/01 13:57:08;;;;;;;2.60;2.40;;;;;;;;;;5011341;28;20729;-45
2023/05/01 13:59:38;;;;;;;4.93;3.17;;;;;;;;;;5011119;28;20892;-45
2023/05/01 14:02:12;;;;;;;7.40;6.30;;;;;;;;;;5012002;28;20399;-44
2023/05/01 14:04:40;;;;;;;6.43;4.83;;;;;;;;;;5010168;28;20419;-46
2023/05/01 14:07:06;;;;;;;2.23;2.00;;;;;;;;;;5012986;28;20902;-47
2023/05/01 14:09:35;;;;;;;5.50;2.60;;;;;;;;;;5011564;28;20457;-47
2023/05/01 14:12:01;;;;;;;3.00;2.60;;;;;;;;;;5011981;28;20827;-46
2023/05/01 14:14:27;;;;;;;2.50;2.30;;;;;;;;;;5012765;28;20399;-47
2023/05/01 14:16:53;;;;;;;2.30;2.10;;;;;;;;;;5012316;28;20455;-45
2023/05/01 14:19:19;;;;;;;2.33;2.13;;;;;;;;;;5012232;28;20446;-46
2023/05/01 14:21:45;;;;;;;3.50;3.10;;;;;;;;;;5011445;28;20414;-45
2023/05/01 14:24:12;;;;;;;2.07;1.87;;;;;;;;;;5011738;28;20411;-47
2023/05/01 14:26:41;;;;;;;2.50;2.30;;;;;;;;;;5013561;28;20440;-47
2023/05/01 14:29:12;;;;;;;2.93;2.43;;;;;;;;;;5012983;28;20423;-47
2023/05/01 14:31:37;;;;;;;3.30;2.13;;;;;;;;;;5012691;28;20950;-47
2023/05/01 14:34:05;;;;;;;2.10;1.90;;;;;;;;;;5014193;28;20414;-46
2023/05/01 14:36:31;;;;;;;2.57;2.20;;;;;;;;;;5014731;28;20478;-48
2023/05/01 14:38:58;;;;;;;3.27;2.60;;;;;;;;;;5012705;28;20426;-46
2023/05/01 14:41:24;;;;;;;2.33;2.13;;;;;;;;;;5013090;28;20486;-47
2023/05/01 14:43:54;;;;;;;2.23;2.03;;;;;;;;;;5012643;28;20435;-46